San Antonio, TX

2:57 AM CDT on August 04, 2015 (GMT -0500)
Longs Creek | | Change Station
CLOSE
Current Station
Personal Weather Station
Location: San Antonio, TX
Elevation: 951 ft
Nearby Weather Stations

Elev 951 ft 29.59 °N, 98.41 °W | Updated 15 seconds ago

Clear
Clear
78.9 °F
Feels Like 82 °F
N
1.0
Wind Variable Wind from WNW
Gusts 3.0 mph

Today
High -- | Low -- °F
--% Chance of Precip.
Yesterday
High -- | Low -- °F
Precip. -- in
6:55 AM 8:24 PM
Waning Gibbous, 80% visible
Pressure 29.89 in
Visibility 10.0 miles
Clouds Overcast 1500 ft
Heat Index 82 °F
Dew Point 74 °F
Humidity 86%
Rainfall 0.00 in
Snow Depth Not available.
UV 0 out of 12
Pollen 5.80 out of 12
Air Quality Not available.
Flu Activity Not available.
METAR KSAT 040751Z 18010KT 10SM OVC015 27/23 A2995 RMK AO2 SLP122 T02720233

More Conditions Fewer Conditions

Pressure 29.89 in
Visibility 10.0 miles
Clouds Overcast 1500 ft
Heat Index 82 °F
Dew Point 74 °F
Humidity 86%
Rainfall 0.00 in
Snow Depth Not available.
UV 0 out of 12
Pollen 5.80 out of 12
Air Quality Not available.
Flu Activity Not available.
METAR KSAT 040751Z 18010KT 10SM OVC015 27/23 A2995 RMK AO2 SLP122 T02720233

More Conditions Fewer Conditions

10-Day Weather Forecast

×

Almanac

Astronomy

Aug. 04, 2015 Rise Set
Actual Time
Civil Twilight
Nautical Twilight
Astronomical Twilight
Moon
Length of Visible Light
Length of Day
Tomorrow will be .
, % of the Moon is Illuminated

Today's Extremes

State Highs State Lows

Community

WunderPhotos

Upload Photos

1,843,877 photos uploaded!

WunderBlogs® & News

Nearby

Air Quality

  Air Quality AQ Index Pollutant
Not available.

Snow Depth

Station Depth Elevation

Earthquake Activity

City Distance Mag. Time & Date
Minimum magnitude displayed is 2.5.

Coastal Water Temperatures

Place Temperature

Stations

Nearby Weather Stations

Station Location Temp. Windchill Dew Point Humidity Wind Precip. Elev Updated Type